Time;durP1;ratioP1;P1;durP2;ratioP2;P2;SDS_P1;SDS_P2;PMS_P1;PMS_P2;Temp;Humidity;BMP_temperature;BMP_pressure;BME280_temperature;BME280_humidity;BME280_pressure;Samples;Min_cycle;Max_cycle;Signal;HPM_P1;HPM_P2
2023/04/13 00:00:45;;;;;;;1.17;0.70;;;;;;;;;;5033350;28;20546;-77
2023/04/13 00:03:15;;;;;;;1.00;0.52;;;;;;;;;;5033847;28;20053;-77
2023/04/13 00:05:42;;;;;;;1.53;0.70;;;;;;;;;;5033921;28;20080;-77
2023/04/13 00:08:10;;;;;;;1.30;0.70;;;;;;;;;;5034210;28;20099;-76
2023/04/13 00:10:39;;;;;;;1.02;0.52;;;;;;;;;;5033821;28;20099;-77
2023/04/13 00:13:08;;;;;;;1.48;0.50;;;;;;;;;;5033778;28;20131;-78
2023/04/13 00:15:36;;;;;;;1.20;0.60;;;;;;;;;;5034493;28;20128;-77
2023/04/13 00:18:04;;;;;;;1.42;0.65;;;;;;;;;;5035932;28;20099;-80
2023/04/13 00:20:30;;;;;;;2.10;0.70;;;;;;;;;;5035385;28;20488;-78
2023/04/13 00:22:57;;;;;;;1.25;0.70;;;;;;;;;;5040060;28;20132;-79
2023/04/13 00:25:25;;;;;;;1.10;0.68;;;;;;;;;;5041305;28;20045;-79
2023/04/13 00:27:52;;;;;;;1.73;0.57;;;;;;;;;;5041839;28;20051;-79
2023/04/13 00:30:20;;;;;;;1.52;0.80;;;;;;;;;;5045276;28;20049;-79
2023/04/13 00:32:47;;;;;;;1.05;0.50;;;;;;;;;;5047365;28;20037;-78
2023/04/13 00:35:17;;;;;;;1.17;0.60;;;;;;;;;;5047493;28;20080;-78
2023/04/13 00:37:45;;;;;;;1.17;0.60;;;;;;;;;;5049429;28;20053;-77
2023/04/13 00:40:15;;;;;;;1.65;0.50;;;;;;;;;;5040616;28;20041;-76
2023/04/13 00:42:44;;;;;;;1.27;0.43;;;;;;;;;;5042302;28;20049;-76
2023/04/13 00:45:12;;;;;;;1.27;0.47;;;;;;;;;;5041662;28;20713;-77
2023/04/13 00:47:40;;;;;;;1.88;0.47;;;;;;;;;;5039392;28;20105;-77
2023/04/13 00:50:07;;;;;;;1.05;0.57;;;;;;;;;;5037660;28;20511;-77
2023/04/13 00:52:37;;;;;;;1.65;0.47;;;;;;;;;;5033427;28;20099;-78
2023/04/13 00:55:05;;;;;;;1.15;0.50;;;;;;;;;;5032755;28;20500;-78
2023/04/13 00:57:33;;;;;;;1.10;0.50;;;;;;;;;;5032230;28;20049;-78
2023/04/13 01:00:05;;;;;;;0.93;0.45;;;;;;;;;;5032827;28;20148;-78
2023/04/13 01:02:31;;;;;;;0.77;0.55;;;;;;;;;;5033222;28;20197;-77
2023/04/13 01:04:58;;;;;;;0.93;0.50;;;;;;;;;;5036127;28;20046;-77
2023/04/13 01:07:31;;;;;;;0.82;0.50;;;;;;;;;;5041100;28;20137;-77
2023/04/13 01:10:05;;;;;;;1.30;0.60;;;;;;;;;;5032061;28;20061;-77
2023/04/13 01:12:43;;;;;;;1.25;0.57;;;;;;;;;;5033975;28;20544;-77
2023/04/13 01:15:13;;;;;;;2.05;0.68;;;;;;;;;;5032808;28;20654;-78
2023/04/13 01:17:43;;;;;;;0.95;0.57;;;;;;;;;;5032534;28;20057;-78
2023/04/13 01:20:12;;;;;;;0.65;0.40;;;;;;;;;;5033422;28;20131;-78
2023/04/13 01:22:44;;;;;;;1.47;0.40;;;;;;;;;;5032868;28;20061;-77
2023/04/13 01:25:36;;;;;;;4.32;0.60;;;;;;;;;;5033354;28;20049;-77
2023/04/13 01:28:07;;;;;;;1.13;0.60;;;;;;;;;;5033500;28;20538;-77
2023/04/13 01:30:36;;;;;;;0.77;0.30;;;;;;;;;;5032370;28;20136;-77
2023/04/13 01:33:04;;;;;;;0.93;0.40;;;;;;;;;;5032939;28;20123;-77
2023/04/13 01:35:32;;;;;;;0.55;0.35;;;;;;;;;;5032309;28;20085;-76
2023/04/13 01:37:59;;;;;;;0.68;0.30;;;;;;;;;;5032563;28;20135;-77
2023/04/13 01:40:27;;;;;;;0.65;0.40;;;;;;;;;;5032474;28;20052;-77
2023/04/13 01:42:53;;;;;;;1.27;0.40;;;;;;;;;;5035089;28;20095;-78
2023/04/13 01:45:26;;;;;;;0.98;0.40;;;;;;;;;;5038006;28;20110;-78
2023/04/13 01:48:03;;;;;;;0.70;0.40;;;;;;;;;;5038408;28;20069;-78
2023/04/13 01:50:36;;;;;;;1.15;0.40;;;;;;;;;;5037807;28;20049;-77
2023/04/13 01:53:06;;;;;;;2.13;0.50;;;;;;;;;;5038432;28;20053;-77
2023/04/13 01:55:36;;;;;;;;;;;;;;;;;;5038638;28;20041;-78
2023/04/13 01:58:04;;;;;;;0.82;0.50;;;;;;;;;;5043001;28;19921;-79
2023/04/13 02:00:34;;;;;;;1.13;0.50;;;;;;;;;;5037930;28;20056;-78
2023/04/13 02:03:01;;;;;;;0.98;0.40;;;;;;;;;;5039045;28;20049;-79
2023/04/13 02:05:28;;;;;;;1.10;0.35;;;;;;;;;;5038595;28;20140;-78
2023/04/13 02:07:54;;;;;;;0.68;0.40;;;;;;;;;;5038288;28;20100;-79
2023/04/13 02:10:21;;;;;;;0.70;0.40;;;;;;;;;;5038497;28;20133;-78
2023/04/13 02:12:48;;;;;;;2.15;0.60;;;;;;;;;;5039700;28;20572;-77
2023/04/13 02:15:15;;;;;;;1.98;0.57;;;;;;;;;;5039590;28;20042;-78
2023/04/13 02:17:43;;;;;;;0.80;0.43;;;;;;;;;;5038571;28;20057;-77
2023/04/13 02:20:11;;;;;;;1.48;0.60;;;;;;;;;;5037607;28;20104;-78
2023/04/13 02:22:40;;;;;;;1.17;0.50;;;;;;;;;;5040027;28;20049;-78
2023/04/13 02:25:10;;;;;;;1.80;0.60;;;;;;;;;;5038874;28;20049;-78
2023/04/13 02:27:37;;;;;;;1.23;0.60;;;;;;;;;;5035867;28;20056;-77
2023/04/13 02:30:06;;;;;;;1.60;0.70;;;;;;;;;;5036097;28;20049;-77
2023/04/13 02:32:34;;;;;;;0.70;0.35;;;;;;;;;;5036609;28;20060;-77
2023/04/13 02:35:03;;;;;;;1.05;0.40;;;;;;;;;;5036039;28;20045;-77
2023/04/13 02:37:31;;;;;;;0.60;0.50;;;;;;;;;;5035855;28;20057;-77
2023/04/13 02:39:58;;;;;;;0.88;0.40;;;;;;;;;;5035780;28;20060;-77
2023/04/13 02:42:26;;;;;;;1.08;0.45;;;;;;;;;;5035432;28;20065;-76
2023/04/13 02:44:52;;;;;;;2.15;0.60;;;;;;;;;;5035248;28;20096;-77
2023/04/13 02:47:19;;;;;;;1.00;0.43;;;;;;;;;;5036333;28;20081;-76
2023/04/13 02:49:46;;;;;;;2.03;0.60;;;;;;;;;;5036887;28;20049;-77
2023/04/13 02:52:14;;;;;;;1.23;0.82;;;;;;;;;;5034874;28;20472;-77
2023/04/13 02:54:42;;;;;;;1.88;0.52;;;;;;;;;;5035802;28;20054;-77
2023/04/13 02:57:09;;;;;;;1.13;0.70;;;;;;;;;;5035208;28;20041;-77
2023/04/13 02:59:36;;;;;;;1.15;0.52;;;;;;;;;;5037567;28;20041;-77
2023/04/13 03:02:02;;;;;;;0.68;0.40;;;;;;;;;;5043135;28;20042;-78
2023/04/13 03:04:29;;;;;;;1.83;0.60;;;;;;;;;;5047111;28;20136;-77
2023/04/13 03:06:57;;;;;;;0.98;0.45;;;;;;;;;;5042930;28;20049;-78
2023/04/13 03:09:25;;;;;;;1.02;0.50;;;;;;;;;;5038100;28;20084;-78
2023/04/13 03:11:51;;;;;;;1.50;0.40;;;;;;;;;;5035715;28;20049;-78
2023/04/13 03:14:20;;;;;;;1.02;0.50;;;;;;;;;;5035744;28;20505;-78
2023/04/13 03:16:47;;;;;;;2.80;0.60;;;;;;;;;;5039892;28;20104;-77
2023/04/13 03:19:15;;;;;;;0.85;0.57;;;;;;;;;;5039876;28;20163;-77
2023/04/13 03:21:43;;;;;;;2.03;0.70;;;;;;;;;;5036947;28;20045;-77
2023/04/13 03:24:10;;;;;;;0.75;0.40;;;;;;;;;;5036256;28;20053;-78
2023/04/13 03:26:38;;;;;;;1.80;0.57;;;;;;;;;;5036845;28;20053;-78
2023/04/13 03:29:04;;;;;;;1.25;0.55;;;;;;;;;;5035852;28;20052;-78
2023/04/13 03:31:32;;;;;;;2.22;0.60;;;;;;;;;;5034157;28;20046;-78
2023/04/13 03:33:58;;;;;;;2.03;0.63;;;;;;;;;;5034639;28;20451;-78
2023/04/13 03:36:26;;;;;;;1.40;0.65;;;;;;;;;;5040325;28;20049;-77
2023/04/13 03:38:53;;;;;;;4.63;0.70;;;;;;;;;;5044446;28;20052;-77
2023/04/13 03:41:19;;;;;;;1.42;0.60;;;;;;;;;;5047163;28;20048;-77
2023/04/13 03:43:47;;;;;;;1.58;0.80;;;;;;;;;;5047545;28;20109;-77
2023/04/13 03:46:14;;;;;;;2.25;0.80;;;;;;;;;;5037753;28;20576;-78
2023/04/13 03:48:41;;;;;;;2.95;0.93;;;;;;;;;;5040573;28;20046;-78
2023/04/13 03:51:08;;;;;;;1.98;0.90;;;;;;;;;;5041017;28;20111;-78
2023/04/13 03:53:36;;;;;;;4.03;1.20;;;;;;;;;;5041453;28;20079;-77
2023/04/13 03:56:03;;;;;;;3.28;1.42;;;;;;;;;;5041413;28;20059;-77
2023/04/13 03:58:29;;;;;;;2.72;1.00;;;;;;;;;;5041802;28;20046;-78
2023/04/13 04:00:57;;;;;;;3.40;1.05;;;;;;;;;;5046190;28;20089;-78
2023/04/13 04:03:25;;;;;;;3.10;0.93;;;;;;;;;;5045365;28;20504;-78
2023/04/13 04:05:52;;;;;;;3.17;1.13;;;;;;;;;;5041929;28;20049;-78
2023/04/13 04:08:18;;;;;;;1.23;0.60;;;;;;;;;;5038752;28;20512;-78
2023/04/13 04:10:45;;;;;;;3.20;1.00;;;;;;;;;;5038856;28;20053;-78
2023/04/13 04:13:12;;;;;;;1.15;0.73;;;;;;;;;;5039068;28;20045;-78
2023/04/13 04:15:39;;;;;;;2.60;0.73;;;;;;;;;;5039308;28;20438;-77
2023/04/13 04:18:07;;;;;;;2.03;0.80;;;;;;;;;;5039144;28;20088;-78
2023/04/13 04:20:34;;;;;;;3.53;1.40;;;;;;;;;;5020361;28;20049;-78
2023/04/13 04:23:03;;;;;;;3.60;1.15;;;;;;;;;;5020328;28;20085;-78
2023/04/13 04:25:32;;;;;;;8.00;1.15;;;;;;;;;;5019402;28;20065;-78
2023/04/13 04:28:01;;;;;;;4.63;1.55;;;;;;;;;;5019150;28;20135;-77
2023/04/13 04:30:28;;;;;;;2.67;0.82;;;;;;;;;;5021359;28;20141;-78
2023/04/13 04:32:55;;;;;;;2.45;0.75;;;;;;;;;;5021945;28;20052;-78
2023/04/13 04:35:25;;;;;;;3.00;0.82;;;;;;;;;;5021691;28;20129;-77
2023/04/13 04:37:51;;;;;;;2.58;0.75;;;;;;;;;;5017786;28;20066;-77
2023/04/13 04:40:18;;;;;;;1.35;0.80;;;;;;;;;;5015342;28;20137;-77
2023/04/13 04:42:45;;;;;;;1.95;0.75;;;;;;;;;;5014687;28;20125;-77
2023/04/13 04:45:13;;;;;;;1.73;0.80;;;;;;;;;;5014242;28;20053;-76
2023/04/13 04:47:41;;;;;;;2.10;0.80;;;;;;;;;;5014196;28;20046;-77
2023/04/13 04:50:09;;;;;;;2.50;1.20;;;;;;;;;;5013493;28;20050;-77
2023/04/13 04:52:37;;;;;;;1.98;0.70;;;;;;;;;;5013848;28;20115;-77
2023/04/13 04:55:05;;;;;;;2.80;0.90;;;;;;;;;;5012816;28;20133;-77
2023/04/13 04:57:32;;;;;;;1.95;0.80;;;;;;;;;;5013156;28;20508;-77
2023/04/13 04:59:58;;;;;;;1.40;0.68;;;;;;;;;;5013606;28;20057;-78
2023/04/13 05:02:25;;;;;;;2.50;0.80;;;;;;;;;;5013500;28;20041;-77
2023/04/13 05:04:53;;;;;;;1.67;0.57;;;;;;;;;;5013905;28;20057;-78
2023/04/13 05:07:20;;;;;;;1.95;0.65;;;;;;;;;;5014004;28;20054;-78
2023/04/13 05:09:49;;;;;;;1.75;0.80;;;;;;;;;;5018162;28;20069;-78
2023/04/13 05:12:16;;;;;;;1.80;0.80;;;;;;;;;;5013405;28;20080;-78
2023/04/13 05:14:43;;;;;;;1.35;0.70;;;;;;;;;;5049538;22;20429;-76
2023/04/13 05:17:09;;;;;;;4.20;1.00;;;;;;;;;;5072995;28;20136;-79
2023/04/13 05:19:36;;;;;;;2.25;0.90;;;;;;;;;;5073502;28;20112;-78
2023/04/13 05:22:02;;;;;;;2.17;0.73;;;;;;;;;;5073447;28;20095;-78
2023/04/13 05:24:29;;;;;;;3.25;0.90;;;;;;;;;;5073357;28;20048;-78
2023/04/13 05:26:57;;;;;;;1.92;0.60;;;;;;;;;;5073869;28;20359;-78
2023/04/13 05:29:24;;;;;;;2.15;0.82;;;;;;;;;;5073489;28;20135;-78
2023/04/13 05:31:51;;;;;;;2.88;0.80;;;;;;;;;;5073589;28;20475;-78
2023/04/13 05:34:18;;;;;;;5.05;1.00;;;;;;;;;;5073664;28;20127;-78
2023/04/13 05:36:44;;;;;;;3.95;0.93;;;;;;;;;;5083345;28;20080;-76
2023/04/13 05:39:11;;;;;;;6.03;1.80;;;;;;;;;;5082838;28;20452;-77
2023/04/13 05:41:38;;;;;;;2.60;0.80;;;;;;;;;;5080025;28;20100;-78
2023/04/13 05:44:05;;;;;;;5.32;0.98;;;;;;;;;;5074910;28;20040;-76
2023/04/13 05:46:32;;;;;;;4.93;0.93;;;;;;;;;;5074024;28;20132;-78
2023/04/13 05:49:00;;;;;;;3.25;1.30;;;;;;;;;;5074293;28;20048;-78
2023/04/13 05:51:29;;;;;;;2.55;0.77;;;;;;;;;;5074339;28;20052;-77
2023/04/13 05:53:56;;;;;;;1.73;0.93;;;;;;;;;;5073769;28;20045;-77
2023/04/13 05:56:24;;;;;;;1.88;0.80;;;;;;;;;;5076307;28;20534;-77
2023/04/13 05:58:51;;;;;;;2.58;0.90;;;;;;;;;;5078993;28;20135;-77
2023/04/13 06:01:19;;;;;;;4.03;0.77;;;;;;;;;;5080012;28;20048;-77
2023/04/13 06:03:46;;;;;;;2.92;0.90;;;;;;;;;;5079591;28;20503;-79
2023/04/13 06:06:13;;;;;;;1.85;0.90;;;;;;;;;;5077673;28;20084;-78
2023/04/13 06:08:40;;;;;;;2.85;0.93;;;;;;;;;;5077431;28;20132;-78
2023/04/13 06:11:07;;;;;;;2.90;1.05;;;;;;;;;;5078906;28;20486;-78
2023/04/13 06:13:34;;;;;;;2.22;0.88;;;;;;;;;;5078553;28;20481;-77
2023/04/13 06:16:01;;;;;;;2.05;0.80;;;;;;;;;;5077845;28;20066;-77
2023/04/13 06:18:29;;;;;;;2.88;1.00;;;;;;;;;;5079203;28;20105;-77
2023/04/13 06:20:55;;;;;;;2.05;0.93;;;;;;;;;;5078978;28;20559;-77
2023/04/13 06:23:22;;;;;;;4.63;1.25;;;;;;;;;;5079502;28;20076;-77
2023/04/13 06:25:49;;;;;;;4.65;1.00;;;;;;;;;;5079116;28;20044;-78
2023/04/13 06:28:16;;;;;;;2.83;1.38;;;;;;;;;;5077902;28;20082;-78
2023/04/13 06:30:43;;;;;;;3.17;1.33;;;;;;;;;;5077428;28;20048;-79
2023/04/13 06:33:10;;;;;;;3.65;0.90;;;;;;;;;;5079135;28;20048;-78
2023/04/13 06:35:38;;;;;;;2.35;1.00;;;;;;;;;;5078386;28;20082;-79
2023/04/13 06:38:04;;;;;;;4.13;1.20;;;;;;;;;;5076165;28;20099;-77
2023/04/13 06:40:32;;;;;;;2.72;0.73;;;;;;;;;;5074360;28;20051;-76
2023/04/13 06:42:59;;;;;;;3.47;0.85;;;;;;;;;;5076154;28;20055;-76
2023/04/13 06:45:25;;;;;;;4.15;1.00;;;;;;;;;;5074536;28;20136;-79
2023/04/13 06:47:56;;;;;;;1.67;0.80;;;;;;;;;;5075391;28;20359;-78
2023/04/13 06:50:23;;;;;;;2.83;1.05;;;;;;;;;;5075718;28;20040;-77
2023/04/13 06:52:51;;;;;;;5.25;1.20;;;;;;;;;;5075738;28;20103;-77
2023/04/13 06:55:17;;;;;;;3.75;1.20;;;;;;;;;;5076033;28;20131;-78
2023/04/13 06:57:44;;;;;;;3.55;1.23;;;;;;;;;;5076201;28;20102;-77
2023/04/13 07:00:13;;;;;;;4.60;1.40;;;;;;;;;;5076435;28;20075;-81
2023/04/13 07:02:40;;;;;;;5.70;1.13;;;;;;;;;;5072203;28;20040;-77
2023/04/13 07:05:07;;;;;;;3.72;1.00;;;;;;;;;;5076274;28;20075;-77
2023/04/13 07:07:34;;;;;;;1.63;0.77;;;;;;;;;;5076098;28;20132;-77
2023/04/13 07:10:02;;;;;;;2.17;0.90;;;;;;;;;;5077164;28;20082;-77
2023/04/13 07:12:28;;;;;;;2.72;0.90;;;;;;;;;;5076852;28;20178;-77
2023/04/13 07:14:55;;;;;;;2.25;0.90;;;;;;;;;;5076034;28;20135;-77
2023/04/13 07:17:21;;;;;;;3.72;0.98;;;;;;;;;;5075719;28;20048;-77
2023/04/13 07:19:48;;;;;;;4.15;1.10;;;;;;;;;;5075560;28;20140;-77
2023/04/13 07:22:16;;;;;;;3.95;1.10;;;;;;;;;;5076509;28;20772;-77
2023/04/13 07:24:42;;;;;;;2.63;1.23;;;;;;;;;;5073977;28;20465;-78
2023/04/13 07:27:10;;;;;;;5.60;1.08;;;;;;;;;;5073072;28;20048;-78
2023/04/13 07:29:37;;;;;;;3.60;1.00;;;;;;;;;;5072527;28;20049;-77
2023/04/13 07:32:05;;;;;;;3.63;1.00;;;;;;;;;;5072067;28;20613;-77
2023/04/13 07:34:32;;;;;;;4.10;1.27;;;;;;;;;;5072703;28;20080;-77
2023/04/13 07:36:58;;;;;;;3.28;1.10;;;;;;;;;;5073687;28;20079;-77
2023/04/13 07:39:26;;;;;;;2.97;1.20;;;;;;;;;;5074578;28;20114;-79
2023/04/13 07:41:53;;;;;;;3.03;1.10;;;;;;;;;;5074729;28;20048;-78
2023/04/13 07:44:21;;;;;;;3.03;1.00;;;;;;;;;;5075306;28;20132;-78
2023/04/13 07:46:47;;;;;;;2.88;1.15;;;;;;;;;;5075225;28;20058;-78
2023/04/13 07:49:14;;;;;;;3.97;1.00;;;;;;;;;;5077931;28;20072;-77
2023/04/13 07:51:41;;;;;;;4.57;1.33;;;;;;;;;;5074551;28;20679;-77
2023/04/13 07:54:08;;;;;;;3.92;1.13;;;;;;;;;;5075600;28;20384;-78
2023/04/13 07:56:35;;;;;;;3.33;1.20;;;;;;;;;;5073284;28;20046;-78
2023/04/13 07:59:02;;;;;;;4.78;1.42;;;;;;;;;;5072612;28;20048;-77
2023/04/13 08:01:30;;;;;;;4.50;1.92;;;;;;;;;;5072769;28;20048;-79
2023/04/13 08:03:57;;;;;;;3.20;1.17;;;;;;;;;;5072323;28;20102;-77
2023/04/13 08:06:23;;;;;;;4.07;1.17;;;;;;;;;;5072044;28;20597;-81
2023/04/13 08:08:50;;;;;;;4.65;1.60;;;;;;;;;;5074245;28;20135;-81
2023/04/13 08:11:18;;;;;;;1.55;0.82;;;;;;;;;;5072699;28;20048;-78
2023/04/13 08:13:44;;;;;;;4.13;1.48;;;;;;;;;;5074629;28;20087;-77
2023/04/13 08:16:11;;;;;;;3.10;0.80;;;;;;;;;;5074252;28;20140;-78
2023/04/13 08:18:39;;;;;;;3.05;0.95;;;;;;;;;;5075911;28;20168;-78
2023/04/13 08:21:10;;;;;;;7.57;1.20;;;;;;;;;;5076172;28;20151;-78
2023/04/13 08:23:39;;;;;;;5.18;1.10;;;;;;;;;;5077024;28;20059;-78
2023/04/13 08:26:05;;;;;;;2.85;0.98;;;;;;;;;;5076646;28;20107;-79
2023/04/13 08:28:32;;;;;;;4.93;1.02;;;;;;;;;;5079730;28;20049;-80
2023/04/13 08:30:59;;;;;;;4.00;1.00;;;;;;;;;;5076597;28;20045;-78
2023/04/13 08:33:26;;;;;;;2.45;0.80;;;;;;;;;;5074745;28;20045;-78
2023/04/13 08:35:54;;;;;;;4.45;1.00;;;;;;;;;;5074212;28;20040;-78
2023/04/13 08:38:20;;;;;;;3.50;1.00;;;;;;;;;;5073568;28;20495;-78
2023/04/13 08:40:47;;;;;;;3.10;1.00;;;;;;;;;;5073914;28;20140;-78
2023/04/13 08:43:14;;;;;;;4.10;1.70;;;;;;;;;;5074463;28;20112;-78
2023/04/13 08:45:42;;;;;;;2.75;0.80;;;;;;;;;;5076253;28;20507;-78
2023/04/13 08:48:11;;;;;;;5.13;1.45;;;;;;;;;;5075956;28;20074;-78
2023/04/13 08:50:38;;;;;;;3.22;0.90;;;;;;;;;;5074630;28;20056;-78
2023/04/13 08:53:06;;;;;;;4.45;1.20;;;;;;;;;;5074733;28;20052;-78
2023/04/13 08:55:33;;;;;;;3.65;1.55;;;;;;;;;;5078744;28;20151;-77
2023/04/13 08:58:02;;;;;;;2.95;0.90;;;;;;;;;;5078479;28;20045;-77
2023/04/13 09:00:30;;;;;;;4.95;1.50;;;;;;;;;;5071243;28;20490;-77
2023/04/13 09:03:02;;;;;;;2.95;0.90;;;;;;;;;;5069780;28;20041;-78
2023/04/13 09:05:30;;;;;;;5.00;1.40;;;;;;;;;;5071801;28;20040;-78
2023/04/13 09:08:00;;;;;;;3.20;1.10;;;;;;;;;;5072255;28;20148;-77
2023/04/13 09:10:28;;;;;;;3.03;1.00;;;;;;;;;;5072540;28;20048;-77
2023/04/13 09:12:56;;;;;;;2.97;0.95;;;;;;;;;;5071715;28;20075;-77
2023/04/13 09:15:23;;;;;;;5.07;1.30;;;;;;;;;;5071835;28;20503;-77
2023/04/13 09:17:50;;;;;;;2.88;0.80;;;;;;;;;;5071875;28;20048;-77
2023/04/13 09:20:20;;;;;;;2.08;1.13;;;;;;;;;;5069615;28;20463;-77
2023/04/13 09:22:47;;;;;;;1.77;0.82;;;;;;;;;;5069377;28;20049;-77
2023/04/13 09:25:21;;;;;;;4.35;1.30;;;;;;;;;;5069727;28;20075;-77
2023/04/13 09:27:50;;;;;;;3.25;1.10;;;;;;;;;;5053825;28;20049;-77
2023/04/13 09:30:20;;;;;;;3.83;1.13;;;;;;;;;;5069101;28;20054;-77
2023/04/13 09:32:47;;;;;;;4.53;1.05;;;;;;;;;;5069048;28;20048;-77
2023/04/13 09:35:13;;;;;;;5.13;1.20;;;;;;;;;;5069122;28;20427;-77
2023/04/13 09:37:41;;;;;;;2.67;1.13;;;;;;;;;;5069246;28;20037;-77
2023/04/13 09:40:12;;;;;;;3.30;1.40;;;;;;;;;;5069234;28;20051;-77
2023/04/13 09:42:40;;;;;;;3.08;1.25;;;;;;;;;;5068934;28;20052;-77
2023/04/13 09:45:09;;;;;;;4.75;1.60;;;;;;;;;;5071137;28;20040;-78
2023/04/13 09:47:37;;;;;;;4.40;0.88;;;;;;;;;;5070949;28;20068;-78
2023/04/13 09:50:05;;;;;;;2.33;0.90;;;;;;;;;;5071177;28;20377;-78
2023/04/13 09:52:33;;;;;;;3.13;1.02;;;;;;;;;;5070648;28;20048;-79
2023/04/13 09:54:59;;;;;;;4.32;1.15;;;;;;;;;;5071901;28;20078;-79
2023/04/13 09:57:27;;;;;;;2.70;0.90;;;;;;;;;;5070709;28;20108;-79
2023/04/13 09:59:55;;;;;;;4.95;1.90;;;;;;;;;;5069916;28;20040;-77
2023/04/13 10:02:23;;;;;;;3.10;1.00;;;;;;;;;;5073004;28;20040;-76
2023/04/13 10:04:50;;;;;;;2.78;0.80;;;;;;;;;;5083949;28;20096;-76
2023/04/13 10:07:17;;;;;;;3.65;0.90;;;;;;;;;;5081827;28;20048;-77
2023/04/13 10:09:44;;;;;;;3.38;1.08;;;;;;;;;;5079559;28;20135;-79
2023/04/13 10:12:12;;;;;;;3.15;0.70;;;;;;;;;;5074984;28;20051;-78
2023/04/13 10:14:43;;;;;;;3.03;1.05;;;;;;;;;;5074499;28;20052;-79
2023/04/13 10:17:33;;;;;;;3.75;0.90;;;;;;;;;;5071540;28;20110;-77
2023/04/13 10:20:06;;;;;;;2.70;0.87;;;;;;;;;;5069436;28;20048;-79
2023/04/13 10:22:34;;;;;;;2.63;0.75;;;;;;;;;;5070819;28;20098;-77
2023/04/13 10:25:01;;;;;;;9.48;1.50;;;;;;;;;;5074007;28;20079;-76
2023/04/13 10:27:28;;;;;;;2.97;0.95;;;;;;;;;;5071303;28;20357;-77
2023/04/13 10:29:55;;;;;;;3.97;1.00;;;;;;;;;;5072715;28;20117;-79
2023/04/13 10:32:22;;;;;;;3.42;0.80;;;;;;;;;;5073713;28;20086;-77
2023/04/13 10:34:51;;;;;;;4.30;0.90;;;;;;;;;;5074722;28;20055;-77
2023/04/13 10:37:19;;;;;;;3.45;1.00;;;;;;;;;;5073252;28;20071;-77
2023/04/13 10:39:47;;;;;;;2.80;0.90;;;;;;;;;;5073735;28;20037;-77
2023/04/13 10:42:14;;;;;;;2.45;0.90;;;;;;;;;;5075403;28;20072;-78
2023/04/13 10:44:44;;;;;;;3.28;1.10;;;;;;;;;;5076212;28;20142;-77
2023/04/13 10:47:12;;;;;;;2.30;1.00;;;;;;;;;;5076943;28;20063;-78
2023/04/13 10:49:39;;;;;;;4.75;1.10;;;;;;;;;;5076337;28;20041;-77
2023/04/13 10:52:09;;;;;;;4.35;1.13;;;;;;;;;;5075228;28;20048;-78
2023/04/13 10:54:37;;;;;;;4.43;1.08;;;;;;;;;;5074134;28;20045;-78
2023/04/13 10:57:05;;;;;;;2.95;0.75;;;;;;;;;;5073646;28;20453;-78
2023/04/13 10:59:43;;;;;;;1.95;0.90;;;;;;;;;;5073497;28;20234;-78
2023/04/13 11:02:11;;;;;;;5.72;0.82;;;;;;;;;;5073898;28;20044;-78
2023/04/13 11:04:39;;;;;;;2.75;1.45;;;;;;;;;;5073428;28;20044;-78
2023/04/13 11:07:08;;;;;;;4.28;1.20;;;;;;;;;;5073060;28;20388;-78
2023/04/13 11:09:35;;;;;;;3.15;1.35;;;;;;;;;;5073496;28;20072;-79
2023/04/13 11:12:01;;;;;;;3.85;1.20;;;;;;;;;;5070580;28;20243;-76
2023/04/13 11:14:28;;;;;;;2.75;0.90;;;;;;;;;;5073257;28;20493;-76
2023/04/13 11:16:56;;;;;;;4.60;1.25;;;;;;;;;;5098910;22;20052;-77
2023/04/13 11:19:23;;;;;;;2.80;0.90;;;;;;;;;;5073019;28;20580;-76
2023/04/13 11:21:55;;;;;;;2.72;0.65;;;;;;;;;;5073646;28;20124;-77
2023/04/13 11:24:27;;;;;;;4.65;0.95;;;;;;;;;;5073800;28;20128;-80
2023/04/13 11:26:56;;;;;;;4.65;0.90;;;;;;;;;;5058074;28;20837;-77
2023/04/13 11:29:23;;;;;;;4.82;1.20;;;;;;;;;;5053056;28;20040;-79
2023/04/13 11:31:50;;;;;;;5.28;1.95;;;;;;;;;;5052294;28;20133;-76
2023/04/13 11:34:27;;;;;;;3.13;0.90;;;;;;;;;;5052870;28;20048;-78
2023/04/13 11:37:01;;;;;;;2.63;0.95;;;;;;;;;;5052625;28;20050;-78
2023/04/13 11:39:30;;;;;;;5.10;0.90;;;;;;;;;;5052191;28;20067;-76
2023/04/13 11:41:57;;;;;;;3.15;0.80;;;;;;;;;;5051719;28;20079;-76
2023/04/13 11:44:25;;;;;;;3.17;0.68;;;;;;;;;;5051385;28;20491;-76
2023/04/13 11:46:55;;;;;;;2.75;0.90;;;;;;;;;;5051791;28;20131;-76
2023/04/13 11:49:22;;;;;;;3.38;0.93;;;;;;;;;;5051424;28;20055;-76
2023/04/13 11:51:50;;;;;;;3.70;1.00;;;;;;;;;;5051188;28;20162;-77
2023/04/13 11:54:18;;;;;;;2.15;0.80;;;;;;;;;;5050890;28;20507;-76
2023/04/13 11:56:47;;;;;;;3.92;0.60;;;;;;;;;;5052041;28;20127;-78
2023/04/13 11:59:15;;;;;;;3.35;0.88;;;;;;;;;;5052319;28;20523;-78
2023/04/13 12:01:48;;;;;;;2.65;0.70;;;;;;;;;;5035554;28;20041;-78
2023/04/13 12:04:15;;;;;;;3.58;0.80;;;;;;;;;;5051754;28;20249;-78
2023/04/13 12:06:43;;;;;;;5.45;1.30;;;;;;;;;;5050556;28;20132;-78
2023/04/13 12:09:13;;;;;;;3.22;0.90;;;;;;;;;;5052358;28;20059;-76
2023/04/13 12:11:41;;;;;;;3.00;0.80;;;;;;;;;;5051768;28;20136;-78
2023/04/13 12:14:19;;;;;;;3.05;0.82;;;;;;;;;;5051616;28;20110;-76
2023/04/13 12:16:49;;;;;;;3.33;0.85;;;;;;;;;;5051240;28;20091;-76
2023/04/13 12:19:21;;;;;;;5.15;0.85;;;;;;;;;;5052676;28;20057;-77
2023/04/13 12:21:52;;;;;;;3.33;1.10;;;;;;;;;;5044699;28;20076;-77
2023/04/13 12:24:18;;;;;;;5.45;1.42;;;;;;;;;;5063582;28;20063;-76
2023/04/13 12:26:45;;;;;;;5.40;1.23;;;;;;;;;;5053356;28;20048;-77
2023/04/13 12:29:14;;;;;;;4.63;1.00;;;;;;;;;;5052206;28;20049;-77
2023/04/13 12:31:43;;;;;;;5.70;1.23;;;;;;;;;;5051253;28;20086;-78
2023/04/13 12:34:09;;;;;;;4.30;1.00;;;;;;;;;;5051453;28;20577;-78
2023/04/13 12:36:36;;;;;;;3.05;0.90;;;;;;;;;;5052581;28;20128;-78
2023/04/13 12:39:03;;;;;;;2.22;0.80;;;;;;;;;;5053414;28;20136;-78
2023/04/13 12:41:30;;;;;;;4.97;1.00;;;;;;;;;;5054698;28;20051;-77
2023/04/13 12:43:57;;;;;;;4.53;0.90;;;;;;;;;;5054783;28;20119;-77
2023/04/13 12:46:25;;;;;;;2.90;1.80;;;;;;;;;;5054932;28;20582;-77
2023/04/13 12:48:52;;;;;;;3.60;1.00;;;;;;;;;;5054445;28;20075;-77
2023/04/13 12:51:19;;;;;;;5.13;1.00;;;;;;;;;;5053067;28;20084;-77
2023/04/13 12:53:46;;;;;;;3.38;1.08;;;;;;;;;;5051635;28;20449;-77
2023/04/13 12:56:12;;;;;;;2.65;1.33;;;;;;;;;;5050849;28;20048;-77
2023/04/13 12:58:39;;;;;;;6.28;1.33;;;;;;;;;;5052131;28;20051;-78
2023/04/13 13:01:07;;;;;;;3.10;1.10;;;;;;;;;;5051475;28;20051;-77
2023/04/13 13:03:35;;;;;;;3.65;1.00;;;;;;;;;;5051981;28;20045;-77
2023/04/13 13:06:04;;;;;;;2.47;1.05;;;;;;;;;;5051279;28;20059;-77
2023/04/13 13:08:31;;;;;;;4.28;1.05;;;;;;;;;;5051046;28;20055;-77
2023/04/13 13:10:58;;;;;;;2.65;0.80;;;;;;;;;;5050987;28;20922;-77
2023/04/13 13:13:24;;;;;;;4.07;1.20;;;;;;;;;;5051806;28;20605;-77
2023/04/13 13:15:51;;;;;;;3.13;1.13;;;;;;;;;;5052295;28;20053;-77
2023/04/13 13:18:18;;;;;;;5.75;1.00;;;;;;;;;;5051724;28;20057;-77
2023/04/13 13:20:48;;;;;;;6.18;1.58;;;;;;;;;;5050779;28;20132;-76
2023/04/13 13:23:14;;;;;;;3.58;1.10;;;;;;;;;;5049583;28;20454;-76
2023/04/13 13:25:42;;;;;;;8.07;1.30;;;;;;;;;;5050072;28;20179;-77
2023/04/13 13:28:10;;;;;;;4.50;1.25;;;;;;;;;;5050030;28;20064;-77
2023/04/13 13:30:37;;;;;;;3.88;1.15;;;;;;;;;;5052387;28;20063;-77
2023/04/13 13:33:03;;;;;;;4.00;0.98;;;;;;;;;;5053569;28;20719;-80
2023/04/13 13:35:31;;;;;;;3.22;1.15;;;;;;;;;;5053519;28;20049;-83
2023/04/13 13:37:59;;;;;;;5.28;1.00;;;;;;;;;;5051617;28;20056;-78
2023/04/13 13:40:29;;;;;;;5.20;0.90;;;;;;;;;;5052502;28;20057;-77
2023/04/13 13:42:56;;;;;;;4.63;0.98;;;;;;;;;;5050652;28;20045;-78
2023/04/13 13:45:23;;;;;;;5.22;1.25;;;;;;;;;;5051413;28;20044;-78
2023/04/13 13:47:52;;;;;;;3.72;0.90;;;;;;;;;;5050484;28;20041;-77
2023/04/13 13:50:20;;;;;;;3.30;1.10;;;;;;;;;;5050120;28;20065;-77
2023/04/13 13:52:47;;;;;;;5.40;1.10;;;;;;;;;;5056256;28;20045;-77
2023/04/13 13:55:18;;;;;;;2.45;0.85;;;;;;;;;;5059563;28;20084;-78
2023/04/13 13:57:47;;;;;;;4.20;0.93;;;;;;;;;;5050049;28;20087;-77
2023/04/13 14:00:16;;;;;;;3.17;1.10;;;;;;;;;;5060547;28;20621;-78
2023/04/13 14:02:44;;;;;;;6.53;1.10;;;;;;;;;;5060453;28;20041;-78
2023/04/13 14:05:12;;;;;;;5.60;1.88;;;;;;;;;;5059970;28;20049;-77
2023/04/13 14:07:40;;;;;;;3.40;0.95;;;;;;;;;;5059501;28;20069;-79
2023/04/13 14:10:09;;;;;;;6.18;1.30;;;;;;;;;;5060411;28;20476;-77
2023/04/13 14:12:39;;;;;;;4.53;0.95;;;;;;;;;;5060099;28;20053;-78
2023/04/13 14:15:06;;;;;;;3.97;0.90;;;;;;;;;;5054745;28;20053;-78
2023/04/13 14:17:33;;;;;;;2.60;0.98;;;;;;;;;;5054479;28;20096;-79
2023/04/13 14:20:00;;;;;;;3.88;1.30;;;;;;;;;;5053907;28;20044;-78
2023/04/13 14:22:27;;;;;;;3.45;1.23;;;;;;;;;;5055063;28;20124;-78
2023/04/13 14:24:55;;;;;;;4.00;1.02;;;;;;;;;;5054059;28;20140;-78
2023/04/13 14:27:22;;;;;;;2.35;1.10;;;;;;;;;;5054428;28;20048;-78
2023/04/13 14:29:50;;;;;;;3.58;1.23;;;;;;;;;;5052566;28;20045;-79
2023/04/13 14:32:16;;;;;;;5.03;1.17;;;;;;;;;;5054577;28;20133;-79
2023/04/13 14:34:46;;;;;;;4.00;1.38;;;;;;;;;;5054070;28;20622;-78
2023/04/13 14:37:14;;;;;;;2.23;0.97;;;;;;;;;;5053951;28;20539;-78
2023/04/13 14:39:41;;;;;;;1.83;0.88;;;;;;;;;;5054129;28;20091;-78
2023/04/13 14:42:09;;;;;;;3.55;0.85;;;;;;;;;;5053591;28;20469;-78
2023/04/13 14:44:35;;;;;;;4.00;1.17;;;;;;;;;;5054564;28;20638;-78
2023/04/13 14:47:04;;;;;;;3.53;0.90;;;;;;;;;;5055000;28;20124;-77